Time;durP1;ratioP1;P1;durP2;ratioP2;P2;SDS_P1;SDS_P2;PMS_P1;PMS_P2;Temp;Humidity;BMP_temperature;BMP_pressure;BME280_temperature;BME280_humidity;BME280_pressure;Samples;Min_cycle;Max_cycle;Signal;HPM_P1;HPM_P2
2023/03/06 00:00:56;;;;;;;;;;;2.60;99.90;;;1.48;100.00;96899.41;4981236;28;1576;-81
2023/03/06 00:03:26;;;;;;;;;;;2.60;99.90;;;1.58;100.00;96903.53;4972531;28;1487;-81
2023/03/06 00:05:55;;;;;;;;;;;2.60;99.90;;;1.60;100.00;96904.34;4962889;28;1552;-81
2023/03/06 00:08:24;;;;;;;;;;;2.60;99.90;;;1.56;100.00;96900.97;4977757;28;1358;-81
2023/03/06 00:10:52;;;;;;;;;;;2.50;99.90;;;1.55;100.00;96903.56;4977861;28;1915;-81
2023/03/06 00:13:19;;;;;;;;;;;2.50;99.90;;;1.57;100.00;96892.41;4980441;28;1544;-80
2023/03/06 00:15:46;;;;;;;;;;;2.40;99.90;;;1.57;100.00;96892.41;4983602;28;1426;-82
2023/03/06 00:18:14;;;;;;;;;;;2.50;99.90;;;1.70;100.00;96892.22;4983104;28;1443;-80
2023/03/06 00:20:42;;;;;;;;;;;2.50;99.90;;;1.64;100.00;96893.16;4977503;28;1463;-81
2023/03/06 00:23:10;;;;;;;;;;;2.50;99.90;;;1.66;100.00;96882.03;4974070;28;1602;-80
2023/03/06 00:25:41;;;;;;;;;;;2.60;99.90;;;1.44;100.00;96889.25;4977350;28;1416;-81
2023/03/06 00:28:09;;;;;;;;;;;2.50;99.90;;;1.44;100.00;96891.81;4975975;28;1541;-80
2023/03/06 00:30:36;;;;;;;;;;;2.60;99.90;;;1.40;100.00;96889.34;4977465;28;1899;-81
2023/03/06 00:33:03;;;;;;;;;;;2.60;99.90;;;1.61;100.00;96888.94;4974843;28;1364;-80
2023/03/06 00:35:30;;;;;;;;;;;2.50;99.90;;;1.62;100.00;96890.66;4978281;28;1447;-81
2023/03/06 00:37:58;;;;;;;;;;;2.50;99.90;;;1.53;100.00;96895.94;4972380;28;1447;-81
2023/03/06 00:40:26;;;;;;;;;;;2.50;99.90;;;1.45;100.00;96890.09;4976832;28;1438;-81
2023/03/06 00:42:53;;;;;;;;;;;2.50;99.90;;;1.34;100.00;96884.31;4978149;28;1504;-81
2023/03/06 00:45:20;;;;;;;;;;;2.50;99.90;;;1.45;100.00;96877.31;4991641;28;1396;-81
2023/03/06 00:47:47;;;;;;;;;;;2.50;99.90;;;1.53;100.00;96869.47;4959435;28;1402;-80
2023/03/06 00:50:14;;;;;;;;;;;2.40;99.90;;;1.39;100.00;96875.72;4977627;28;1887;-81
2023/03/06 00:52:41;;;;;;;;;;;2.40;99.90;;;1.43;100.00;96876.50;4992783;28;1404;-80
2023/03/06 00:55:09;;;;;;;;;;;2.50;99.90;;;1.37;100.00;96868.91;4979269;28;1481;-81
2023/03/06 00:57:36;;;;;;;;;;;2.40;99.90;;;1.32;100.00;96865.59;4975914;28;1348;-80
2023/03/06 01:00:05;;;;;;;;;;;2.40;99.90;;;1.34;100.00;96861.31;4978161;28;1444;-81
2023/03/06 01:02:32;;;;;;;;;;;2.40;99.90;;;1.46;100.00;96853.44;4979796;28;1382;-81
2023/03/06 01:05:00;;;;;;;;;;;2.40;99.90;;;1.38;100.00;96855.28;4977429;28;1389;-82
2023/03/06 01:07:32;;;;;;;;;;;2.40;99.90;;;1.37;100.00;96844.22;4979970;28;1454;-81
2023/03/06 01:09:59;;;;;;;;;;;2.30;99.90;;;1.36;100.00;96836.56;4976340;28;1887;-81
2023/03/06 01:12:26;;;;;;;;;;;2.30;99.90;;;1.37;100.00;96828.00;4963950;28;1395;-81
2023/03/06 01:14:53;;;;;;;;;;;2.30;99.90;;;1.35;100.00;96833.16;4981121;28;1372;-81
2023/03/06 01:17:20;;;;;;;;;;;2.40;99.90;;;1.41;100.00;96827.91;4987032;28;1789;-80
2023/03/06 01:19:47;;;;;;;;;;;2.50;99.90;;;1.59;100.00;96831.84;4987624;28;1331;-81
2023/03/06 01:22:14;;;;;;;;;;;2.50;99.90;;;1.68;100.00;96821.44;4987434;28;1448;-80
2023/03/06 01:24:41;;;;;;;;;;;2.50;99.90;;;1.51;100.00;96825.22;4989069;28;1422;-79
2023/03/06 01:27:08;;;;;;;;;;;2.50;99.90;;;1.37;100.00;96815.22;4988160;28;1354;-80
2023/03/06 01:29:35;;;;;;;;;;;2.50;99.90;;;1.38;100.00;96811.81;4962485;28;1983;-81
2023/03/06 01:32:04;;;;;;;;;;;2.50;99.90;;;1.50;100.00;96810.72;4978645;28;1886;-81
2023/03/06 01:34:31;;;;;;;;;;;2.40;99.90;;;1.41;100.00;96804.06;4975166;28;1467;-81
2023/03/06 01:36:58;;;;;;;;;;;2.40;99.90;;;1.17;100.00;96801.09;4976715;28;1472;-81
2023/03/06 01:39:27;;;;;;;;;;;2.40;99.90;;;1.25;100.00;96798.38;4972026;28;1414;-80
2023/03/06 01:41:56;;;;;;;;;;;2.40;99.90;;;1.28;100.00;96795.81;4990542;28;1598;-81
2023/03/06 01:44:22;;;;;;;;;;;2.30;99.90;;;1.35;100.00;96792.25;4960209;28;1490;-81
2023/03/06 01:46:49;;;;;;;;;;;2.30;99.90;;;1.10;100.00;96796.97;4972659;28;1475;-81
2023/03/06 01:49:20;;;;;;;;;;;2.30;99.90;;;1.14;100.00;96797.75;4973386;28;1992;-81
2023/03/06 01:52:16;;;;;;;;;;;2.30;99.90;;;1.15;100.00;96802.00;4973445;28;1675;-81
2023/03/06 01:54:49;;;;;;;;;;;2.20;99.90;;;1.13;100.00;96798.63;4954794;28;1392;-81
2023/03/06 01:57:20;;;;;;;;;;;2.30;99.90;;;1.07;100.00;96802.13;4967692;28;1444;-81
2023/03/06 01:59:52;;;;;;;;;;;2.20;99.90;;;1.18;100.00;96791.72;4974039;28;1419;-81
2023/03/06 02:02:19;;;;;;;;;;;2.20;99.90;;;1.14;100.00;96787.50;4956508;28;1441;-81
2023/03/06 02:04:47;;;;;;;;;;;2.20;99.90;;;1.24;100.00;96786.50;4975206;28;1580;-81
2023/03/06 02:07:14;;;;;;;;;;;2.20;99.90;;;1.38;100.00;96781.97;4970979;28;1506;-81
2023/03/06 02:09:41;;;;;;;;;;;2.20;99.90;;;1.25;100.00;96783.06;4974707;28;2000;-81
2023/03/06 02:12:11;;;;;;;;;;;2.20;99.90;;;1.40;100.00;96787.06;4969975;28;1475;-81
2023/03/06 02:14:41;;;;;;;;;;;2.20;99.90;;;1.36;100.00;96780.31;4959940;28;1426;-81
2023/03/06 02:17:10;;;;;;;;;;;2.20;99.90;;;1.32;100.00;96779.50;4970924;28;1665;-81
2023/03/06 02:20:00;;;;;;;;;;;2.20;99.90;;;1.11;100.00;96777.34;4975618;28;1509;-81
2023/03/06 02:22:43;;;;;;;;;;;2.20;99.90;;;1.31;100.00;96777.00;4972575;28;1613;-79
2023/03/06 02:25:33;;;;;;;;;;;2.20;99.90;;;1.28;100.00;96767.69;4969013;28;1881;-81
2023/03/06 02:28:03;;;;;;;;;;;2.20;99.90;;;1.11;100.00;96775.63;4972656;28;1589;-80
2023/03/06 02:30:30;;;;;;;;;;;2.20;99.90;;;1.02;100.00;96771.53;4965382;28;1977;-81
2023/03/06 02:32:58;;;;;;;;;;;2.10;99.90;;;1.02;100.00;96763.03;4971187;28;1506;-80
2023/03/06 02:35:31;;;;;;;;;;;2.10;99.90;;;0.91;100.00;96767.47;4971011;28;1449;-81
2023/03/06 02:38:10;;;;;;;;;;;2.20;99.90;;;1.08;100.00;96767.19;4967926;28;1463;-81
2023/03/06 02:40:37;;;;;;;;;;;2.10;99.90;;;1.22;100.00;96765.22;4970984;28;1451;-81
2023/03/06 02:43:04;;;;;;;;;;;2.10;99.90;;;1.16;100.00;96758.50;4967699;28;1434;-80
2023/03/06 02:45:35;;;;;;;;;;;2.10;99.90;;;1.08;100.00;96764.66;4954295;28;1546;-81
2023/03/06 02:48:04;;;;;;;;;;;2.10;99.90;;;1.06;100.00;96759.56;4970976;28;1452;-80
2023/03/06 02:50:32;;;;;;;;;;;2.20;99.90;;;1.15;100.00;96750.88;4969737;28;1895;-81
2023/03/06 02:52:59;;;;;;;;;;;2.20;99.90;;;0.88;100.00;96750.50;4985616;28;1449;-80
2023/03/06 02:55:26;;;;;;;;;;;2.10;99.90;;;0.94;100.00;96759.78;4954452;28;1389;-81
2023/03/06 02:57:53;;;;;;;;;;;2.20;99.90;;;1.09;100.00;96748.44;4975624;28;1475;-81
2023/03/06 03:00:22;;;;;;;;;;;2.20;99.90;;;1.22;100.00;96750.72;4988790;28;1437;-82
2023/03/06 03:02:49;;;;;;;;;;;2.20;99.90;;;1.15;100.00;96744.03;4972545;28;1507;-82
2023/03/06 03:05:16;;;;;;;;;;;2.20;99.90;;;1.09;100.00;96746.72;4968700;28;1529;-81
2023/03/06 03:07:43;;;;;;;;;;;2.20;99.90;;;0.92;100.00;96754.69;4975606;28;1652;-81
2023/03/06 03:10:13;;;;;;;;;;;2.20;99.90;;;0.96;100.00;96753.78;4970551;28;1911;-82
2023/03/06 03:12:40;;;;;;;;;;;2.30;99.90;;;0.96;100.00;96755.50;4974503;28;1588;-81
2023/03/06 03:15:08;;;;;;;;;;;2.20;99.90;;;1.14;100.00;96749.19;4952922;28;1454;-81
2023/03/06 03:17:36;;;;;;;;;;;2.20;99.90;;;1.16;100.00;96747.44;4977374;28;1733;-81
2023/03/06 03:20:06;;;;;;;;;;;2.30;99.90;;;1.25;100.00;96737.03;4973434;28;1374;-82
2023/03/06 03:22:33;;;;;;;;;;;2.30;99.90;;;1.24;100.00;96741.31;4975964;28;1660;-80
2023/03/06 03:25:01;;;;;;;;;;;2.30;99.90;;;1.34;100.00;96736.84;4958090;28;1374;-81
2023/03/06 03:27:28;;;;;;;;;;;2.30;99.90;;;1.43;100.00;96746.06;4989916;28;1412;-81
2023/03/06 03:29:58;;;;;;;;;;;2.30;99.90;;;1.24;100.00;96740.47;4977519;28;2038;-81
2023/03/06 03:32:26;;;;;;;;;;;2.30;99.90;;;1.25;100.00;96737.91;4979602;28;1407;-81
2023/03/06 03:34:55;;;;;;;;;;;2.30;99.90;;;1.10;100.00;96745.03;4964163;28;1544;-81
2023/03/06 03:37:22;;;;;;;;;;;2.30;99.90;;;1.34;100.00;96741.13;4986194;28;1345;-80
2023/03/06 03:39:49;;;;;;;;;;;2.30;99.90;;;1.17;100.00;96731.25;4977605;28;1844;-81
2023/03/06 03:42:17;;;;;;;;;;;2.30;99.90;;;1.21;100.00;96732.88;4957529;28;1524;-81
2023/03/06 03:44:45;;;;;;;;;;;2.30;99.90;;;1.48;100.00;96733.19;4966566;28;1540;-81
2023/03/06 03:47:12;;;;;;;;;;;2.30;99.90;;;1.40;100.00;96728.25;4969643;28;1464;-81
2023/03/06 03:49:39;;;;;;;;;;;2.40;99.90;;;1.40;100.00;96723.13;4971026;28;1930;-81
2023/03/06 03:52:06;;;;;;;;;;;2.30;99.90;;;1.35;100.00;96717.28;4973767;28;1386;-80
2023/03/06 03:54:33;;;;;;;;;;;2.30;99.90;;;1.38;100.00;96719.75;4972769;28;1390;-81
2023/03/06 03:57:00;;;;;;;;;;;2.30;99.90;;;1.14;100.00;96723.63;4957629;28;1424;-80
2023/03/06 03:59:27;;;;;;;;;;;2.30;99.90;;;1.07;100.00;96720.34;4973349;28;1461;-81
2023/03/06 04:01:54;;;;;;;;;;;2.40;99.90;;;1.07;100.00;96725.44;4959990;28;1425;-81
2023/03/06 04:04:21;;;;;;;;;;;2.30;99.90;;;1.09;100.00;96720.31;4975075;28;1475;-81
2023/03/06 04:06:50;;;;;;;;;;;2.30;99.90;;;1.30;100.00;96719.06;4977467;28;1432;-81
2023/03/06 04:09:18;;;;;;;;;;;2.30;99.90;;;1.75;100.00;96719.81;4990680;28;1497;-81
2023/03/06 04:11:45;;;;;;;;;;;2.40;99.90;;;1.84;100.00;96709.38;4973103;28;1957;-81
2023/03/06 04:14:13;;;;;;;;;;;2.40;99.90;;;1.79;100.00;96700.97;4973846;28;1406;-81
2023/03/06 04:16:40;;;;;;;;;;;2.40;99.90;;;1.76;100.00;96697.66;4974676;28;1505;-81
2023/03/06 04:19:07;;;;;;;;;;;2.40;99.90;;;1.75;100.00;96696.78;4974754;28;1511;-81
2023/03/06 04:21:36;;;;;;;;;;;2.40;99.90;;;1.80;100.00;96692.44;4970643;28;1419;-81
2023/03/06 04:24:04;;;;;;;;;;;2.40;99.90;;;1.54;100.00;96694.72;4972205;28;1426;-80
2023/03/06 04:26:34;;;;;;;;;;;2.30;99.90;;;1.53;100.00;96691.31;4975415;28;1521;-81
2023/03/06 04:29:02;;;;;;;;;;;2.30;99.90;;;1.72;100.00;96693.47;4976207;28;1550;-81
2023/03/06 04:31:29;;;;;;;;;;;2.20;99.90;;;1.52;100.00;96687.06;4974825;28;1950;-81
2023/03/06 04:33:57;;;;;;;;;;;2.20;99.90;;;1.36;100.00;96690.81;4976468;28;1679;-81
2023/03/06 04:36:27;;;;;;;;;;;2.20;99.90;;;1.57;100.00;96692.06;4978261;28;1407;-81
2023/03/06 04:38:54;;;;;;;;;;;2.20;99.90;;;1.51;100.00;96692.22;4975027;28;1549;-81
2023/03/06 04:41:22;;;;;;;;;;;2.10;99.90;;;1.44;100.00;96687.22;4956205;28;1563;-81
2023/03/06 04:43:51;;;;;;;;;;;2.20;99.90;;;1.52;100.00;96684.50;4970218;28;1451;-81
2023/03/06 04:46:18;;;;;;;;;;;2.20;99.90;;;1.49;100.00;96691.41;4971946;28;1409;-81
2023/03/06 04:48:45;;;;;;;;;;;2.20;99.90;;;1.58;100.00;96683.53;4970124;28;1503;-80
2023/03/06 04:51:12;;;;;;;;;;;2.20;99.90;;;1.49;100.00;96687.13;4969948;28;1887;-81
2023/03/06 04:53:39;;;;;;;;;;;2.20;99.90;;;1.58;100.00;96691.22;4973734;28;1460;-80
2023/03/06 04:56:07;;;;;;;;;;;2.20;99.90;;;1.56;100.00;96686.13;4971286;28;1426;-81
2023/03/06 04:58:34;;;;;;;;;;;2.20;99.90;;;1.63;100.00;96685.13;4964326;28;1501;-80
2023/03/06 05:01:01;;;;;;;;;;;2.30;99.90;;;1.34;100.00;96690.00;4961127;28;1418;-79
2023/03/06 05:03:29;;;;;;;;;;;2.20;99.90;;;1.29;100.00;96679.88;4994127;28;1631;-80
2023/03/06 05:05:56;;;;;;;;;;;2.10;99.90;;;1.19;100.00;96686.88;4980959;28;1478;-79
2023/03/06 05:08:23;;;;;;;;;;;2.10;99.90;;;1.19;100.00;96681.78;4971348;28;1442;-80
2023/03/06 05:10:58;;;;;;;;;;;2.10;99.90;;;1.33;100.00;96685.78;4972575;28;1902;-81
2023/03/06 05:13:26;;;;;;;;;;;2.10;99.90;;;1.22;100.00;96681.72;4956978;28;1536;-80
2023/03/06 05:15:54;;;;;;;;;;;2.00;99.90;;;1.23;100.00;96680.84;4972019;28;1525;-80
2023/03/06 05:18:22;;;;;;;;;;;2.00;99.90;;;1.21;100.00;96686.88;4975898;28;1485;-80
2023/03/06 05:20:50;;;;;;;;;;;2.00;99.90;;;1.31;100.00;96685.78;4975720;28;1499;-80
2023/03/06 05:23:17;;;;;;;;;;;2.00;99.90;;;1.33;100.00;96686.59;4974765;28;1434;-80
2023/03/06 05:25:45;;;;;;;;;;;2.00;99.90;;;1.38;100.00;96684.78;4973840;28;1601;-80
2023/03/06 05:28:12;;;;;;;;;;;2.00;99.90;;;1.33;100.00;96678.09;4973755;28;1414;-80
2023/03/06 05:30:39;;;;;;;;;;;2.00;99.90;;;1.42;100.00;96683.88;4978655;28;1883;-80
2023/03/06 05:33:06;;;;;;;;;;;2.00;99.90;;;1.29;100.00;96671.38;4975129;28;1811;-80
2023/03/06 05:35:36;;;;;;;;;;;2.00;99.90;;;1.41;100.00;96678.78;4973678;28;1613;-80
2023/03/06 05:38:04;;;;;;;;;;;2.00;99.90;;;1.32;100.00;96672.13;4973789;28;1340;-79
2023/03/06 05:40:32;;;;;;;;;;;2.00;99.90;;;1.01;100.00;96674.47;4976186;28;2372;-81
2023/03/06 05:42:59;;;;;;;;;;;2.00;99.90;;;0.79;100.00;96682.53;4973559;28;1453;-80
2023/03/06 05:45:26;;;;;;;;;;;2.00;99.90;;;0.87;100.00;96678.97;4973173;28;1769;-80
2023/03/06 05:47:52;;;;;;;;;;;1.90;99.90;;;1.01;100.00;96685.53;4958819;28;1352;-81
2023/03/06 05:50:20;;;;;;;;;;;1.90;99.90;;;0.96;100.00;96679.66;4973099;28;1883;-80
2023/03/06 05:52:46;;;;;;;;;;;2.00;99.90;;;0.74;100.00;96681.78;4977240;28;1665;-80
2023/03/06 05:55:15;;;;;;;;;;;2.00;99.90;;;0.92;100.00;96682.31;4962460;28;1550;-80
2023/03/06 05:57:42;;;;;;;;;;;2.00;99.90;;;0.90;100.00;96686.59;4977747;28;1445;-80
2023/03/06 06:00:11;;;;;;;;;;;2.00;99.90;;;0.79;100.00;96687.63;4980238;28;1476;-80
2023/03/06 06:02:38;;;;;;;;;;;1.90;99.90;;;0.85;100.00;96685.84;4968908;28;1422;-79
2023/03/06 06:05:06;;;;;;;;;;;2.00;99.90;;;0.75;100.00;96683.47;4953344;28;1452;-80
2023/03/06 06:07:32;;;;;;;;;;;2.00;99.90;;;0.76;100.00;96691.97;4967990;28;1455;-80
2023/03/06 06:09:59;;;;;;;;;;;2.00;99.90;;;0.93;100.00;96686.53;4958477;28;1396;-80
2023/03/06 06:12:29;;;;;;;;;;;2.00;99.90;;;0.86;100.00;96683.25;4967069;28;1903;-80
2023/03/06 06:14:56;;;;;;;;;;;2.00;99.90;;;1.15;100.00;96692.94;4971810;28;1464;-80
2023/03/06 06:17:24;;;;;;;;;;;2.00;99.90;;;1.28;100.00;96688.44;4971400;28;1555;-79
2023/03/06 06:19:51;;;;;;;;;;;1.90;99.90;;;0.85;100.00;96691.81;4970919;28;1613;-81
2023/03/06 06:22:19;;;;;;;;;;;1.90;99.90;;;0.79;100.00;96692.75;4960798;28;1529;-80
2023/03/06 06:24:46;;;;;;;;;;;2.00;99.90;;;0.78;100.00;96698.72;4970630;28;1409;-80
2023/03/06 06:27:13;;;;;;;;;;;2.00;99.90;;;0.93;100.00;96701.88;4971407;28;1619;-80
2023/03/06 06:29:40;;;;;;;;;;;1.90;99.90;;;0.67;100.00;96697.25;4986124;28;1512;-80
2023/03/06 06:32:08;;;;;;;;;;;1.90;99.90;;;0.60;100.00;96707.56;4975628;28;1887;-80
2023/03/06 06:34:35;;;;;;;;;;;1.90;99.90;;;0.56;100.00;96703.38;4976908;28;1423;-80
2023/03/06 06:37:02;;;;;;;;;;;2.00;99.90;;;0.70;100.00;96704.84;4970337;28;1445;-79
2023/03/06 06:39:29;;;;;;;;;;;2.00;99.90;;;0.80;100.00;96703.81;4974309;28;1194;-80
2023/03/06 06:41:58;;;;;;;;;;;1.90;99.90;;;0.92;100.00;96706.16;4970451;28;1485;-79
2023/03/06 06:44:45;;;;;;;;;;;1.90;99.90;;;0.88;100.00;96703.69;4977106;28;1562;-80
2023/03/06 06:47:12;;;;;;;;;;;1.90;99.90;;;0.68;100.00;96707.41;4968080;28;1238;-80
2023/03/06 06:49:55;;;;;;;;;;;1.90;99.90;;;0.85;100.00;96712.25;4977093;28;1359;-80
2023/03/06 06:52:23;;;;;;;;;;;1.90;99.90;;;0.69;100.00;96713.38;4963391;28;1895;-80
2023/03/06 06:54:51;;;;;;;;;;;1.90;99.90;;;0.68;100.00;96720.19;4974083;28;1074;-80
2023/03/06 06:57:17;;;;;;;;;;;1.90;99.90;;;0.85;100.00;96721.63;4974220;28;1463;-79
2023/03/06 06:59:44;;;;;;;;;;;1.90;99.90;;;0.85;100.00;96714.78;4973075;28;1250;-80
2023/03/06 07:02:15;;;;;;;;;;;1.90;99.90;;;0.81;100.00;96716.53;4972628;28;1104;-80
2023/03/06 07:04:42;;;;;;;;;;;2.00;99.90;;;1.02;100.00;96717.88;4974347;28;1529;-80
2023/03/06 07:07:29;;;;;;;;;;;2.00;99.90;;;0.99;100.00;96714.53;4971865;28;1464;-80
2023/03/06 07:09:56;;;;;;;;;;;2.00;99.90;;;1.12;100.00;96704.91;4946244;28;1518;-80
2023/03/06 07:12:23;;;;;;;;;;;2.10;99.90;;;1.04;100.00;96716.13;4977059;28;1910;-79
2023/03/06 07:14:50;;;;;;;;;;;2.00;99.90;;;1.06;100.00;96705.88;4978504;28;1466;-80
2023/03/06 07:17:17;;;;;;;;;;;2.00;99.90;;;0.91;100.00;96708.72;4960558;28;1682;-80
2023/03/06 07:19:44;;;;;;;;;;;2.10;99.90;;;0.88;100.00;96714.72;4988973;28;1763;-80
2023/03/06 07:22:12;;;;;;;;;;;2.00;99.90;;;0.91;100.00;96711.28;4977232;28;1515;-80
2023/03/06 07:24:39;;;;;;;;;;;2.10;99.90;;;1.17;100.00;96716.75;4977476;28;1421;-80
2023/03/06 07:27:06;;;;;;;;;;;2.20;99.90;;;1.28;100.00;96713.13;4974728;28;1258;-80
2023/03/06 07:29:33;;;;;;;;;;;2.30;99.90;;;1.04;100.00;96710.19;4973258;28;1352;-80
2023/03/06 07:32:00;;;;;;;;;;;2.30;99.90;;;1.07;100.00;96715.22;4971311;28;1892;-80
2023/03/06 07:34:27;;;;;;;;;;;2.30;99.90;;;1.01;100.00;96716.19;4972353;28;1406;-80
2023/03/06 07:36:54;;;;;;;;;;;2.30;99.90;;;0.97;100.00;96712.00;4972029;28;1074;-80
2023/03/06 07:39:22;;;;;;;;;;;2.20;99.90;;;0.90;100.00;96712.16;4970987;28;1414;-80
2023/03/06 07:41:51;;;;;;;;;;;2.30;99.90;;;0.93;100.00;96712.09;4974346;28;1374;-80
2023/03/06 07:44:18;;;;;;;;;;;2.30;99.90;;;0.88;100.00;96717.28;4976182;28;1392;-81
2023/03/06 07:46:45;;;;;;;;;;;2.30;99.90;;;1.02;100.00;96725.53;4972172;28;1245;-80
2023/03/06 07:49:13;;;;;;;;;;;2.20;99.90;;;0.89;100.00;96715.56;4975617;28;1351;-80
2023/03/06 07:51:40;;;;;;;;;;;2.20;99.90;;;0.87;100.00;96710.50;4986844;28;1914;-80
2023/03/06 07:54:07;;;;;;;;;;;2.20;99.90;;;1.09;100.00;96720.31;4989598;28;1389;-80
2023/03/06 07:56:34;;;;;;;;;;;2.20;99.90;;;1.24;100.00;96718.31;4981714;28;1389;-80
2023/03/06 07:59:02;;;;;;;;;;;2.20;99.90;;;1.29;100.00;96714.81;4978291;28;1419;-80
2023/03/06 08:01:32;;;;;;;;;;;2.20;99.90;;;1.10;100.00;96720.28;4980748;28;1661;-80
2023/03/06 08:04:00;;;;;;;;;;;2.30;99.90;;;0.93;100.00;96720.59;4978920;28;1475;-80
2023/03/06 08:06:27;;;;;;;;;;;2.30;99.90;;;1.00;100.00;96722.19;4986875;28;1467;-80
2023/03/06 08:08:55;;;;;;;;;;;2.40;99.90;;;1.19;100.00;96725.22;4981012;28;1360;-80
2023/03/06 08:11:25;;;;;;;;;;;2.40;99.90;;;1.11;100.00;96727.06;4962593;28;1918;-80
2023/03/06 08:13:55;;;;;;;;;;;2.40;99.90;;;1.03;100.00;96732.34;4964657;28;1428;-80
2023/03/06 08:16:25;;;;;;;;;;;2.50;99.90;;;1.14;100.00;96737.25;4980001;28;1512;-79
2023/03/06 08:18:52;;;;;;;;;;;2.60;99.90;;;1.32;100.00;96737.75;4975674;28;1513;-79
2023/03/06 08:21:22;;;;;;;;;;;2.50;99.90;;;1.16;100.00;96739.78;4973595;28;1388;-80
2023/03/06 08:23:49;;;;;;;;;;;2.70;99.90;;;1.39;100.00;96742.75;4970968;28;1543;-80
2023/03/06 08:26:19;;;;;;;;;;;2.80;99.90;;;1.68;100.00;96731.91;4972411;28;1451;-80
2023/03/06 08:28:46;;;;;;;;;;;2.90;99.90;;;1.56;100.00;96736.44;4975848;28;1430;-80
2023/03/06 08:31:23;;;;;;;;;;;3.10;99.90;;;1.54;100.00;96744.13;4975315;28;1995;-80
2023/03/06 08:33:50;;;;;;;;;;;3.10;99.90;;;1.45;100.00;96734.94;4975267;28;1386;-81
2023/03/06 08:36:18;;;;;;;;;;;3.20;99.90;;;1.79;100.00;96734.25;4974709;28;1147;-80
2023/03/06 08:38:45;;;;;;;;;;;3.20;99.90;;;1.71;100.00;96738.69;4978085;28;1393;-80
2023/03/06 08:41:12;;;;;;;;;;;3.20;99.90;;;1.82;100.00;96736.72;4975522;28;1388;-79
2023/03/06 08:43:39;;;;;;;;;;;3.20;99.90;;;1.64;100.00;96744.78;4975115;28;1363;-80
2023/03/06 08:46:06;;;;;;;;;;;3.30;99.90;;;2.05;100.00;96748.19;4961457;28;1361;-79
2023/03/06 08:48:33;;;;;;;;;;;3.30;99.90;;;1.65;100.00;96738.81;4974526;28;1599;-80
2023/03/06 08:51:00;;;;;;;;;;;3.30;99.90;;;2.04;100.00;96739.66;4972035;28;2019;-81
2023/03/06 08:53:27;;;;;;;;;;;3.40;99.90;;;2.02;100.00;96733.75;4972952;28;1444;-80
2023/03/06 08:56:30;;;;;;;;;;;3.40;99.90;;;1.80;100.00;96733.38;4970657;28;1445;-80
2023/03/06 08:58:59;;;;;;;;;;;3.30;99.90;;;1.67;100.00;96730.22;4958843;28;1435;-80
2023/03/06 09:01:29;;;;;;;;;;;3.20;99.90;;;1.50;100.00;96734.00;4973537;28;1513;-80
2023/03/06 09:03:59;;;;;;;;;;;3.20;99.90;;;1.53;100.00;96742.47;4962272;28;1817;-80
2023/03/06 09:06:30;;;;;;;;;;;3.10;99.90;;;1.56;100.00;96752.63;4971509;28;1418;-79
2023/03/06 09:08:58;;;;;;;;;;;3.10;99.90;;;1.72;100.00;96744.66;4977966;28;1489;-79
2023/03/06 09:11:27;;;;;;;;;;;3.00;99.90;;;1.55;100.00;96747.53;4977249;28;2011;-81
2023/03/06 09:13:55;;;;;;;;;;;2.90;99.90;;;1.29;100.00;96753.19;4972788;28;1549;-78
2023/03/06 09:16:22;;;;;;;;;;;2.90;99.90;;;1.50;100.00;96757.84;4973442;28;1522;-79
2023/03/06 09:18:51;;;;;;;;;;;2.80;99.90;;;1.56;100.00;96762.84;4976396;28;1230;-80
2023/03/06 09:21:20;;;;;;;;;;;2.90;99.90;;;1.73;100.00;96754.00;4973996;28;1367;-80
2023/03/06 09:23:48;;;;;;;;;;;2.90;99.90;;;1.47;100.00;96755.38;4971159;28;1248;-81
2023/03/06 09:26:16;;;;;;;;;;;3.00;99.90;;;1.18;100.00;96758.47;4922871;28;11037;-81
2023/03/06 09:28:46;;;;;;;;;;;2.90;99.90;;;1.29;100.00;96765.97;4968980;28;1998;-80
2023/03/06 09:31:15;;;;;;;;;;;2.90;99.90;;;1.24;100.00;96771.16;4993603;28;1914;-80
2023/03/06 09:33:43;;;;;;;;;;;2.80;99.90;;;1.11;100.00;96772.25;4992605;28;1434;-81
2023/03/06 09:36:15;;;;;;;;;;;2.70;99.90;;;1.38;100.00;96768.34;4994130;28;1431;-80
2023/03/06 09:38:42;;;;;;;;;;;2.60;99.90;;;1.26;100.00;96769.41;4986452;28;1464;-80
2023/03/06 09:41:48;;;;;;;;;;;2.60;99.90;;;1.10;100.00;96773.97;4988590;28;1536;-80
2023/03/06 09:44:37;;;;;;;;;;;2.50;99.90;;;1.35;100.00;96776.06;4956384;28;1554;-80
2023/03/06 09:47:16;;;;;;;;;;;2.50;99.90;;;1.21;100.00;96779.72;4969653;28;1534;-80
2023/03/06 09:50:07;;;;;;;;;;;2.50;99.90;;;1.29;100.00;96773.63;4985821;28;1419;-82
2023/03/06 09:52:34;;;;;;;;;;;2.60;99.90;;;1.39;100.00;96767.44;4991812;28;1968;-80
2023/03/06 09:55:18;;;;;;;;;;;2.60;99.90;;;1.39;100.00;96776.00;4987970;28;1444;-81
2023/03/06 09:57:54;;;;;;;;;;;2.70;99.90;;;1.67;100.00;96780.56;4979613;28;1478;-80
2023/03/06 10:00:30;;;;;;;;;;;2.70;99.90;;;1.40;100.00;96771.72;4993434;28;1447;-81
2023/03/06 10:03:34;;;;;;;;;;;2.80;99.90;;;1.38;100.00;96773.44;4990437;28;1443;-81
2023/03/06 10:06:05;;;;;;;;;;;2.90;99.90;;;1.62;100.00;96772.97;4989641;28;1361;-81
2023/03/06 10:08:49;;;;;;;;;;;2.90;99.90;;;1.81;100.00;96776.00;4994882;28;1603;-80
2023/03/06 10:11:36;;;;;;;;;;;3.00;99.90;;;1.35;100.00;96778.63;4977915;28;1891;-81
2023/03/06 10:14:10;;;;;;;;;;;3.00;99.90;;;1.53;100.00;96772.28;4972020;28;1397;-80
2023/03/06 10:16:37;;;;;;;;;;;2.80;99.90;;;1.41;100.00;96774.22;4993197;28;1288;-80
2023/03/06 10:19:13;;;;;;;;;;;2.80;99.90;;;1.25;100.00;96775.38;4993670;28;1447;-81
2023/03/06 10:21:59;;;;;;;;;;;2.60;99.90;;;1.10;100.00;96770.56;5006472;28;1380;-80
2023/03/06 10:24:36;;;;;;;;;;;2.50;99.90;;;1.28;100.00;96777.03;4991005;28;1445;-81
2023/03/06 10:27:15;;;;;;;;;;;2.40;99.90;;;1.07;100.00;96774.00;4990703;28;1710;-81
2023/03/06 10:30:11;;;;;;;;;;;2.40;99.90;;;0.90;100.00;96778.59;4979440;28;1478;-80
2023/03/06 10:32:54;;;;;;;;;;;2.30;99.90;;;0.74;100.00;96778.84;4968796;28;1911;-80
2023/03/06 10:35:27;;;;;;;;;;;2.20;99.90;;;0.81;100.00;96774.47;4997341;28;1732;-80
2023/03/06 10:38:11;;;;;;;;;;;2.20;99.90;;;0.87;100.00;96782.03;4999652;28;1518;-79
2023/03/06 10:40:50;;;;;;;;;;;2.10;99.90;;;0.78;100.00;96787.31;4989918;28;1918;-80
2023/03/06 10:43:17;;;;;;;;;;;2.20;99.90;;;0.84;100.00;96782.06;4987803;28;1585;-81
2023/03/06 10:45:50;;;;;;;;;;;2.20;99.90;;;0.91;100.00;96785.38;4996406;28;1519;-80
2023/03/06 10:48:27;;;;;;;;;;;2.30;99.90;;;1.05;100.00;96786.00;4979495;28;1769;-81
2023/03/06 10:51:18;;;;;;;;;;;2.30;99.90;;;1.27;100.00;96788.16;4991890;28;1503;-81
2023/03/06 10:53:57;;;;;;;;;;;2.40;99.90;;;1.13;100.00;96781.56;5007970;28;1497;-80
2023/03/06 10:56:34;;;;;;;;;;;2.60;99.90;;;1.28;100.00;96788.13;4995994;28;1489;-81
2023/03/06 10:59:06;;;;;;;;;;;2.70;99.90;;;1.63;100.00;96782.31;4998870;28;1532;-80
2023/03/06 11:01:34;;;;;;;;;;;2.70;99.90;;;1.78;100.00;96768.38;4999748;28;1393;-80
2023/03/06 11:04:15;;;;;;;;;;;2.90;99.90;;;1.45;100.00;96772.47;4981198;28;1614;-80
2023/03/06 11:06:42;;;;;;;;;;;3.00;99.90;;;1.52;100.00;96774.03;5000247;28;1656;-80
2023/03/06 11:09:23;;;;;;;;;;;3.10;99.90;;;1.63;100.00;96764.41;4998383;28;1506;-80
2023/03/06 11:11:51;;;;;;;;;;;3.20;99.90;;;1.65;100.00;96767.78;4992927;28;1906;-81
2023/03/06 11:14:21;;;;;;;;;;;3.30;99.90;;;1.58;100.00;96761.13;4993120;28;1519;-81
2023/03/06 11:16:52;;;;;;;;;;;3.30;99.90;;;1.77;100.00;96773.53;4997019;28;1477;-80
2023/03/06 11:19:28;;;;;;;;;;;3.10;99.90;;;1.81;100.00;96759.81;4991957;28;1481;-80
2023/03/06 11:22:08;;;;;;;;;;;3.10;99.90;;;1.80;100.00;96766.66;4989547;28;1823;-81
2023/03/06 11:24:39;;;;;;;;;;;3.10;99.90;;;1.87;100.00;96757.97;4981195;28;1485;-81
2023/03/06 11:27:33;;;;;;;;;;;3.10;99.90;;;1.70;100.00;96759.19;4997006;28;1361;-80
2023/03/06 11:30:25;;;;;;;;;;;3.00;99.90;;;1.55;100.00;96755.22;4994497;28;1556;-80
2023/03/06 11:32:57;;;;;;;;;;;2.90;99.90;;;1.63;100.00;96755.91;4990922;28;1899;-80
2023/03/06 11:35:27;;;;;;;;;;;3.00;99.90;;;1.83;100.00;96758.91;4992000;28;1363;-80
2023/03/06 11:38:03;;;;;;;;;;;3.00;99.90;;;1.73;100.00;96754.00;4980769;28;1478;-81
2023/03/06 11:40:53;;;;;;;;;;;2.90;99.90;;;1.76;100.00;96756.50;4987664;28;1985;-80
2023/03/06 11:43:35;;;;;;;;;;;2.90;99.90;;;1.89;100.00;96755.34;4993978;28;1586;-80
2023/03/06 11:46:28;;;;;;;;;;;3.00;99.90;;;1.51;100.00;96754.44;4994597;28;1526;-80
2023/03/06 11:49:02;;;;;;;;;;;2.90;99.90;;;1.25;100.00;96757.50;5001096;28;1524;-80